This is the latest recevied weather packets stored in our database for station/object IW1RID-3. If no packets are shown the sender has not sent any weather packets the latest 10 day(s).
| Time | Temp. | Humidity | Pressure | Rain* | Wind** | Luminosity | Snow |
|---|---|---|---|---|---|---|---|
| 1787822752 | 30.56° C | 51% | 1073.6 hPa | - | - | - | - |
| 1787821547 | 30.56° C | 44% | 1073.3 hPa | - | - | - | - |
| 1787820342 | 28.89° C | 44% | 1073.1 hPa | - | - | - | - |
| 1787819137 | 27.78° C | 47% | 1072.9 hPa | - | - | - | - |
| 1787817933 | 26.67° C | 51% | 1072.6 hPa | - | - | - | - |
| 1787816728 | 25.56° C | 54% | 1072.5 hPa | - | - | - | - |
| 1787815523 | 24.44° C | 54% | 1072.7 hPa | - | - | - | - |
| 1787814318 | 23.33° C | 58% | 1073 hPa | - | - | - | - |
| 1787813113 | 22.22° C | 60% | 1073.1 hPa | - | - | - | - |
| 1787811907 | 21.67° C | 62% | 1073.1 hPa | - | - | - | - |
| 1787810702 | 21.67° C | 60% | 1073.2 hPa | - | - | - | - |
| 1787809497 | 21.11° C | 62% | 1073 hPa | - | - | - | - |
| 1787808292 | 22.22° C | 56% | 1073 hPa | - | - | - | - |
| 1787807087 | 21.11° C | 62% | 1072.8 hPa | - | - | - | - |
| 1787805882 | 20.56° C | 64% | 1072.8 hPa | - | - | - | - |
| 1787804678 | 21.11° C | 58% | 1072.7 hPa | - | - | - | - |
| 1787803473 | 21.11° C | 58% | 1072.8 hPa | - | - | - | - |
| 1787802268 | 21.11° C | 59% | 1072.7 hPa | - | - | - | - |
| 1787801063 | 22.78° C | 50% | 1072.6 hPa | - | - | - | - |
| 1787799858 | 21.67° C | 55% | 1073.1 hPa | - | - | - | - |
| 1787798653 | 21.67° C | 58% | 1074 hPa | - | - | - | - |
| 1787797449 | 21.11° C | 64% | 1074 hPa | - | - | - | - |
| 1787796244 | 21.67° C | 61% | 1074.1 hPa | - | - | - | - |
| 1787795039 | 21.11° C | 69% | 1073.8 hPa | - | - | - | - |
| 1787793834 | 21.67° C | 67% | 1073.6 hPa | - | - | - | - |
* Rain since midnight (hover to see other rain measurements)
** Current wind speed in m/s (hover to see current wind gust speed)